首页
METAR-TAF:

METAR-TAF

机场 :

奥黑尔国际机场

芝加哥, 伊利诺伊州, 美国

纬度: 41-58-47N, 经度: 087-54-16W, 海拔: 203米

当前天气观测

该预报发布于40分钟前的18:51 UTC
风速14节,风向西,有时为28节阵风
温度 22°C
湿度 46%
气压 1017 hPa
能見度: 16.1公里
少量云层高于4700英尺
少量云层高于25000英尺

METAR: KORD 231851Z 27014G28KT 10SM FEW047 FEW250 22/10 A3002 RMK AO2 PK WND 26028/1843 SLP163 T02170100

时间: 14:31 (19:31 UTC)

预报

该预报发布于1小时和51分钟前的17:40 UTC
预报有效从23日的 18点(UTC)到 24日的 24点(UTC)
风速15节,风向西,有时为25节阵风
能見度: 10公里
少量云层高于5000英尺
少量云层高于25000英尺
从 24日的 0000点(UTC)
风速9节,风向西北
能見度: 10公里
少量云层高于7000英尺
散云层高于25000英尺
从 24日的 0300点(UTC)
风速7节,风向北转东北
能見度: 10公里
少量云层高于7000英尺
多云层高于25000英尺
从 24日的 1200点(UTC)
风速9节,风向
能見度: 9.7公里
散云层高于2000英尺
多云层高于5000英尺
小阵雨
几率 30%
从 24日的 12点(UTC)到 24日的 15点(UTC)
能見度: 4.8公里
散云层高于1500英尺, 积雨云.
阴天层高于3500英尺
雷暴, 小雨
从 24日的 1600点(UTC)
风速10节,风向东转东南,有时为15节阵风
能見度: 10公里
多云层高于6000英尺

TAF: KORD 231740Z 2318/2424 27015G25KT P6SM FEW050 FEW250 FM240000 32009KT P6SM FEW070 SCT250 FM240300 03007KT P6SM FEW070 BKN250 FM241200 09009KT 6SM -SHRA SCT020 BKN050 PROB30 2412/2415 3SM -TSRA SCT015CB OVC035 FM241600 12010G15KT P6SM BKN060

超过4000个机场的气象观测和天气预报(METAR&TAF报告)。

可查询的气象台以黄色和红色小点在地图上表示。

将鼠标移到小点上方,可查看气象台名称。

然后点击查看天气观测和预报。

如需切换地图:点击带黑十字的绿色按钮放大地图;点击带横线的绿色按钮缩小地图;或者点击绿色箭头查看邻近地区的地图。


METAR-TAF: